sensor_id;sensor_type;location;lat;lon;timestamp;temperature;humidity
34768;DHT22;21755;43.608;1.236;2023-09-07T00:01:49;19.20;1.00
34768;DHT22;21755;43.608;1.236;2023-09-07T00:04:19;19.10;80.80
34768;DHT22;21755;43.608;1.236;2023-09-07T00:06:45;19.10;99.90
34768;DHT22;21755;43.608;1.236;2023-09-07T00:09:11;19.00;99.90
34768;DHT22;21755;43.608;1.236;2023-09-07T00:11:37;19.00;99.90
34768;DHT22;21755;43.608;1.236;2023-09-07T00:14:04;18.90;1.00
34768;DHT22;21755;43.608;1.236;2023-09-07T00:16:33;18.90;1.00
34768;DHT22;21755;43.608;1.236;2023-09-07T00:19:01;18.80;1.00
34768;DHT22;21755;43.608;1.236;2023-09-07T00:21:28;18.80;1.00
34768;DHT22;21755;43.608;1.236;2023-09-07T00:23:54;18.80;1.00
34768;DHT22;21755;43.608;1.236;2023-09-07T00:26:20;18.80;1.00
34768;DHT22;21755;43.608;1.236;2023-09-07T00:28:46;18.80;1.00
34768;DHT22;21755;43.608;1.236;2023-09-07T00:31:12;18.70;1.00
34768;DHT22;21755;43.608;1.236;2023-09-07T00:33:38;18.70;1.00
34768;DHT22;21755;43.608;1.236;2023-09-07T00:36:04;18.70;1.00
34768;DHT22;21755;43.608;1.236;2023-09-07T00:38:30;18.60;53.50
34768;DHT22;21755;43.608;1.236;2023-09-07T00:40:56;18.60;99.90
34768;DHT22;21755;43.608;1.236;2023-09-07T00:43:22;18.50;99.90
34768;DHT22;21755;43.608;1.236;2023-09-07T00:45:48;18.50;99.90
34768;DHT22;21755;43.608;1.236;2023-09-07T00:48:15;18.50;99.90
34768;DHT22;21755;43.608;1.236;2023-09-07T00:50:42;18.50;99.90
34768;DHT22;21755;43.608;1.236;2023-09-07T00:53:10;18.50;99.90
34768;DHT22;21755;43.608;1.236;2023-09-07T00:55:36;18.50;99.90
34768;DHT22;21755;43.608;1.236;2023-09-07T00:58:06;18.40;99.90
34768;DHT22;21755;43.608;1.236;2023-09-07T01:00:34;18.40;99.90
34768;DHT22;21755;43.608;1.236;2023-09-07T01:02:59;18.30;99.90
34768;DHT22;21755;43.608;1.236;2023-09-07T01:08:25;18.30;99.90
34768;DHT22;21755;43.608;1.236;2023-09-07T01:10:52;18.30;99.90
34768;DHT22;21755;43.608;1.236;2023-09-07T01:13:19;18.30;99.90
34768;DHT22;21755;43.608;1.236;2023-09-07T01:15:46;18.20;99.90
34768;DHT22;21755;43.608;1.236;2023-09-07T01:18:12;18.20;99.90
34768;DHT22;21755;43.608;1.236;2023-09-07T01:20:41;18.20;99.90
34768;DHT22;21755;43.608;1.236;2023-09-07T01:23:08;18.10;99.90
34768;DHT22;21755;43.608;1.236;2023-09-07T01:25:35;18.10;99.90
34768;DHT22;21755;43.608;1.236;2023-09-07T01:28:01;18.00;99.90
34768;DHT22;21755;43.608;1.236;2023-09-07T01:30:27;18.00;99.90
34768;DHT22;21755;43.608;1.236;2023-09-07T01:32:54;17.90;99.90
34768;DHT22;21755;43.608;1.236;2023-09-07T01:35:20;17.90;99.90
34768;DHT22;21755;43.608;1.236;2023-09-07T01:37:48;17.90;99.90
34768;DHT22;21755;43.608;1.236;2023-09-07T01:40:14;17.90;99.90
34768;DHT22;21755;43.608;1.236;2023-09-07T01:42:40;17.90;99.90
34768;DHT22;21755;43.608;1.236;2023-09-07T01:45:06;17.90;99.90
34768;DHT22;21755;43.608;1.236;2023-09-07T01:47:32;17.80;99.90
34768;DHT22;21755;43.608;1.236;2023-09-07T01:49:58;17.80;99.90
34768;DHT22;21755;43.608;1.236;2023-09-07T01:52:24;17.80;99.90
34768;DHT22;21755;43.608;1.236;2023-09-07T01:54:50;17.70;99.90
34768;DHT22;21755;43.608;1.236;2023-09-07T01:57:16;17.70;99.90
34768;DHT22;21755;43.608;1.236;2023-09-07T01:59:41;17.70;99.90
34768;DHT22;21755;43.608;1.236;2023-09-07T02:02:07;17.60;99.90
34768;DHT22;21755;43.608;1.236;2023-09-07T02:04:33;17.60;99.90
34768;DHT22;21755;43.608;1.236;2023-09-07T02:06:59;17.60;99.90
34768;DHT22;21755;43.608;1.236;2023-09-07T02:09:25;17.50;99.90
34768;DHT22;21755;43.608;1.236;2023-09-07T02:11:50;17.50;1.00
34768;DHT22;21755;43.608;1.236;2023-09-07T02:14:16;17.50;1.00
34768;DHT22;21755;43.608;1.236;2023-09-07T02:16:42;17.60;1.00
34768;DHT22;21755;43.608;1.236;2023-09-07T02:19:08;17.60;1.00
34768;DHT22;21755;43.608;1.236;2023-09-07T02:21:34;17.50;1.00
34768;DHT22;21755;43.608;1.236;2023-09-07T02:24:00;17.50;99.90
34768;DHT22;21755;43.608;1.236;2023-09-07T02:26:26;17.50;99.90
34768;DHT22;21755;43.608;1.236;2023-09-07T02:28:51;17.50;1.00
34768;DHT22;21755;43.608;1.236;2023-09-07T02:31:17;17.50;1.00
34768;DHT22;21755;43.608;1.236;2023-09-07T02:33:43;17.50;1.00
34768;DHT22;21755;43.608;1.236;2023-09-07T02:36:09;17.50;1.00
34768;DHT22;21755;43.608;1.236;2023-09-07T02:38:35;17.50;1.00
34768;DHT22;21755;43.608;1.236;2023-09-07T02:41:01;17.50;1.00
34768;DHT22;21755;43.608;1.236;2023-09-07T02:43:28;17.50;1.00
34768;DHT22;21755;43.608;1.236;2023-09-07T02:45:53;17.40;1.00
34768;DHT22;21755;43.608;1.236;2023-09-07T02:48:19;17.40;1.00
34768;DHT22;21755;43.608;1.236;2023-09-07T02:50:45;17.40;1.00
34768;DHT22;21755;43.608;1.236;2023-09-07T02:53:15;17.40;1.00
34768;DHT22;21755;43.608;1.236;2023-09-07T02:55:41;17.40;1.00
34768;DHT22;21755;43.608;1.236;2023-09-07T02:58:07;17.30;1.00
34768;DHT22;21755;43.608;1.236;2023-09-07T03:00:32;17.30;1.00
34768;DHT22;21755;43.608;1.236;2023-09-07T03:03:00;17.30;1.00
34768;DHT22;21755;43.608;1.236;2023-09-07T03:05:28;17.30;1.00
34768;DHT22;21755;43.608;1.236;2023-09-07T03:07:54;17.20;1.00
34768;DHT22;21755;43.608;1.236;2023-09-07T03:10:20;17.20;1.00
34768;DHT22;21755;43.608;1.236;2023-09-07T03:12:46;17.20;1.00
34768;DHT22;21755;43.608;1.236;2023-09-07T03:15:12;17.20;1.00
34768;DHT22;21755;43.608;1.236;2023-09-07T03:17:38;17.20;1.00
34768;DHT22;21755;43.608;1.236;2023-09-07T03:20:04;17.20;1.00
34768;DHT22;21755;43.608;1.236;2023-09-07T03:22:43;17.10;1.00
34768;DHT22;21755;43.608;1.236;2023-09-07T03:25:10;17.10;1.00
34768;DHT22;21755;43.608;1.236;2023-09-07T03:27:37;17.10;1.00
34768;DHT22;21755;43.608;1.236;2023-09-07T03:30:04;17.10;1.00
34768;DHT22;21755;43.608;1.236;2023-09-07T03:32:31;17.00;1.00
34768;DHT22;21755;43.608;1.236;2023-09-07T03:34:59;17.00;1.00
34768;DHT22;21755;43.608;1.236;2023-09-07T03:37:27;17.00;1.00
34768;DHT22;21755;43.608;1.236;2023-09-07T03:39:54;17.00;1.00
34768;DHT22;21755;43.608;1.236;2023-09-07T03:42:20;17.00;1.00
34768;DHT22;21755;43.608;1.236;2023-09-07T03:44:46;17.00;1.00
34768;DHT22;21755;43.608;1.236;2023-09-07T03:47:13;17.00;1.00
34768;DHT22;21755;43.608;1.236;2023-09-07T03:49:39;17.00;1.00
34768;DHT22;21755;43.608;1.236;2023-09-07T03:52:06;16.90;1.00
34768;DHT22;21755;43.608;1.236;2023-09-07T03:54:31;16.90;1.00
34768;DHT22;21755;43.608;1.236;2023-09-07T03:56:57;16.90;1.00
34768;DHT22;21755;43.608;1.236;2023-09-07T03:59:23;16.90;1.00
34768;DHT22;21755;43.608;1.236;2023-09-07T04:01:49;16.90;1.00
34768;DHT22;21755;43.608;1.236;2023-09-07T04:04:15;16.90;1.00
34768;DHT22;21755;43.608;1.236;2023-09-07T04:06:41;16.90;1.00
34768;DHT22;21755;43.608;1.236;2023-09-07T04:09:07;16.80;1.00
34768;DHT22;21755;43.608;1.236;2023-09-07T04:11:33;16.80;1.00
34768;DHT22;21755;43.608;1.236;2023-09-07T04:13:59;16.80;1.00
34768;DHT22;21755;43.608;1.236;2023-09-07T04:16:24;16.80;1.00
34768;DHT22;21755;43.608;1.236;2023-09-07T04:18:50;16.80;1.00
34768;DHT22;21755;43.608;1.236;2023-09-07T04:21:16;16.80;1.00
34768;DHT22;21755;43.608;1.236;2023-09-07T04:23:43;16.80;1.00
34768;DHT22;21755;43.608;1.236;2023-09-07T04:26:10;16.80;1.00
34768;DHT22;21755;43.608;1.236;2023-09-07T04:28:37;16.70;1.00
34768;DHT22;21755;43.608;1.236;2023-09-07T04:31:05;16.70;1.00
34768;DHT22;21755;43.608;1.236;2023-09-07T04:33:31;16.70;1.00
34768;DHT22;21755;43.608;1.236;2023-09-07T04:36:15;16.70;1.00
34768;DHT22;21755;43.608;1.236;2023-09-07T04:38:41;16.70;1.00
34768;DHT22;21755;43.608;1.236;2023-09-07T04:41:12;16.60;1.00
34768;DHT22;21755;43.608;1.236;2023-09-07T04:43:39;16.60;1.00
34768;DHT22;21755;43.608;1.236;2023-09-07T04:46:06;16.50;1.00
34768;DHT22;21755;43.608;1.236;2023-09-07T04:48:33;16.50;1.00
34768;DHT22;21755;43.608;1.236;2023-09-07T04:51:00;16.50;1.00
34768;DHT22;21755;43.608;1.236;2023-09-07T04:53:28;16.50;1.00
34768;DHT22;21755;43.608;1.236;2023-09-07T04:55:54;16.40;1.00
34768;DHT22;21755;43.608;1.236;2023-09-07T04:58:20;16.40;1.00
34768;DHT22;21755;43.608;1.236;2023-09-07T05:00:46;16.40;1.00
34768;DHT22;21755;43.608;1.236;2023-09-07T05:03:11;16.40;1.00
34768;DHT22;21755;43.608;1.236;2023-09-07T05:05:38;16.40;1.10
34768;DHT22;21755;43.608;1.236;2023-09-07T05:08:05;16.40;3.20
34768;DHT22;21755;43.608;1.236;2023-09-07T05:10:34;16.40;2.90
34768;DHT22;21755;43.608;1.236;2023-09-07T05:13:00;16.30;6.10
34768;DHT22;21755;43.608;1.236;2023-09-07T05:15:26;16.30;7.00
34768;DHT22;21755;43.608;1.236;2023-09-07T05:17:52;16.30;9.20
34768;DHT22;21755;43.608;1.236;2023-09-07T05:20:18;16.30;9.00
34768;DHT22;21755;43.608;1.236;2023-09-07T05:22:44;16.30;10.10
34768;DHT22;21755;43.608;1.236;2023-09-07T05:25:11;16.30;11.10
34768;DHT22;21755;43.608;1.236;2023-09-07T05:27:37;16.30;11.30
34768;DHT22;21755;43.608;1.236;2023-09-07T05:30:05;16.30;11.90
34768;DHT22;21755;43.608;1.236;2023-09-07T05:32:31;16.30;12.10
34768;DHT22;21755;43.608;1.236;2023-09-07T05:34:57;16.30;14.80
34768;DHT22;21755;43.608;1.236;2023-09-07T05:37:22;16.40;17.40
34768;DHT22;21755;43.608;1.236;2023-09-07T05:39:48;16.40;17.90
34768;DHT22;21755;43.608;1.236;2023-09-07T05:42:15;16.40;18.20
34768;DHT22;21755;43.608;1.236;2023-09-07T05:44:41;16.40;17.40
34768;DHT22;21755;43.608;1.236;2023-09-07T05:47:07;16.40;13.90
34768;DHT22;21755;43.608;1.236;2023-09-07T05:49:33;16.40;14.10
34768;DHT22;21755;43.608;1.236;2023-09-07T05:51:59;16.40;17.40
34768;DHT22;21755;43.608;1.236;2023-09-07T05:54:25;16.50;19.50
34768;DHT22;21755;43.608;1.236;2023-09-07T05:56:50;16.50;20.50
34768;DHT22;21755;43.608;1.236;2023-09-07T05:59:16;16.60;22.80
34768;DHT22;21755;43.608;1.236;2023-09-07T06:01:42;16.60;24.00
34768;DHT22;21755;43.608;1.236;2023-09-07T06:04:08;16.70;22.90
34768;DHT22;21755;43.608;1.236;2023-09-07T06:06:34;16.70;22.60
34768;DHT22;21755;43.608;1.236;2023-09-07T06:09:00;16.80;21.60
34768;DHT22;21755;43.608;1.236;2023-09-07T06:11:26;16.90;22.30
34768;DHT22;21755;43.608;1.236;2023-09-07T06:13:51;16.90;23.10
34768;DHT22;21755;43.608;1.236;2023-09-07T06:16:17;17.00;23.60
34768;DHT22;21755;43.608;1.236;2023-09-07T06:18:43;17.10;23.80
34768;DHT22;21755;43.608;1.236;2023-09-07T06:21:09;17.10;23.90
34768;DHT22;21755;43.608;1.236;2023-09-07T06:23:35;17.20;23.80
34768;DHT22;21755;43.608;1.236;2023-09-07T06:26:01;17.30;23.60
34768;DHT22;21755;43.608;1.236;2023-09-07T06:28:28;17.30;23.50
34768;DHT22;21755;43.608;1.236;2023-09-07T06:30:54;17.40;23.00
34768;DHT22;21755;43.608;1.236;2023-09-07T06:33:20;17.60;23.00
34768;DHT22;21755;43.608;1.236;2023-09-07T06:35:45;17.70;23.70
34768;DHT22;21755;43.608;1.236;2023-09-07T06:38:11;17.80;23.70
34768;DHT22;21755;43.608;1.236;2023-09-07T06:40:37;17.90;23.30
34768;DHT22;21755;43.608;1.236;2023-09-07T06:43:03;18.00;21.80
34768;DHT22;21755;43.608;1.236;2023-09-07T06:45:35;18.10;21.10
34768;DHT22;21755;43.608;1.236;2023-09-07T06:48:02;18.20;20.90
34768;DHT22;21755;43.608;1.236;2023-09-07T06:50:28;18.40;20.00
34768;DHT22;21755;43.608;1.236;2023-09-07T06:52:54;18.40;17.70
34768;DHT22;21755;43.608;1.236;2023-09-07T06:55:19;18.60;14.50
34768;DHT22;21755;43.608;1.236;2023-09-07T06:57:45;18.70;9.10
34768;DHT22;21755;43.608;1.236;2023-09-07T07:00:12;18.80;3.80
34768;DHT22;21755;43.608;1.236;2023-09-07T07:02:38;18.90;1.00
34768;DHT22;21755;43.608;1.236;2023-09-07T07:05:04;19.10;1.00
34768;DHT22;21755;43.608;1.236;2023-09-07T07:07:30;19.30;1.00
34768;DHT22;21755;43.608;1.236;2023-09-07T07:09:56;19.50;1.00
34768;DHT22;21755;43.608;1.236;2023-09-07T07:12:22;19.80;1.00
34768;DHT22;21755;43.608;1.236;2023-09-07T07:14:48;20.10;1.00
34768;DHT22;21755;43.608;1.236;2023-09-07T07:17:14;20.40;1.00
34768;DHT22;21755;43.608;1.236;2023-09-07T07:19:40;20.50;99.90
34768;DHT22;21755;43.608;1.236;2023-09-07T07:22:07;20.40;99.90
34768;DHT22;21755;43.608;1.236;2023-09-07T07:24:32;20.40;99.90
34768;DHT22;21755;43.608;1.236;2023-09-07T07:26:58;20.50;99.90
34768;DHT22;21755;43.608;1.236;2023-09-07T07:29:24;20.50;99.90
34768;DHT22;21755;43.608;1.236;2023-09-07T07:31:50;20.50;99.90
34768;DHT22;21755;43.608;1.236;2023-09-07T07:34:16;20.70;99.90
34768;DHT22;21755;43.608;1.236;2023-09-07T07:36:42;20.70;99.90
34768;DHT22;21755;43.608;1.236;2023-09-07T07:39:07;20.80;99.90
34768;DHT22;21755;43.608;1.236;2023-09-07T07:41:33;20.90;99.90
34768;DHT22;21755;43.608;1.236;2023-09-07T07:43:59;21.00;5.20
34768;DHT22;21755;43.608;1.236;2023-09-07T07:46:25;21.10;99.90
34768;DHT22;21755;43.608;1.236;2023-09-07T07:48:51;21.30;99.90
34768;DHT22;21755;43.608;1.236;2023-09-07T07:51:16;21.40;99.90
34768;DHT22;21755;43.608;1.236;2023-09-07T07:53:42;21.50;99.90
34768;DHT22;21755;43.608;1.236;2023-09-07T07:56:16;21.60;35.40
34768;DHT22;21755;43.608;1.236;2023-09-07T07:58:42;21.70;99.90
34768;DHT22;21755;43.608;1.236;2023-09-07T08:01:18;21.80;99.90
34768;DHT22;21755;43.608;1.236;2023-09-07T08:03:46;22.00;99.90
34768;DHT22;21755;43.608;1.236;2023-09-07T08:06:12;22.10;99.90
34768;DHT22;21755;43.608;1.236;2023-09-07T08:08:39;22.20;99.90
34768;DHT22;21755;43.608;1.236;2023-09-07T08:11:05;22.30;74.30
34768;DHT22;21755;43.608;1.236;2023-09-07T08:13:32;22.50;1.00
34768;DHT22;21755;43.608;1.236;2023-09-07T08:16:03;22.60;99.90
34768;DHT22;21755;43.608;1.236;2023-09-07T08:18:30;22.70;47.40
34768;DHT22;21755;43.608;1.236;2023-09-07T08:20:57;22.80;1.00
34768;DHT22;21755;43.608;1.236;2023-09-07T08:23:23;22.90;1.00
34768;DHT22;21755;43.608;1.236;2023-09-07T08:25:51;23.00;99.90
34768;DHT22;21755;43.608;1.236;2023-09-07T08:28:18;23.10;99.90
34768;DHT22;21755;43.608;1.236;2023-09-07T08:30:44;23.10;99.90
34768;DHT22;21755;43.608;1.236;2023-09-07T08:33:10;23.20;99.90
34768;DHT22;21755;43.608;1.236;2023-09-07T08:35:36;23.30;99.90
34768;DHT22;21755;43.608;1.236;2023-09-07T08:38:12;23.40;99.90
34768;DHT22;21755;43.608;1.236;2023-09-07T08:40:39;23.50;99.90
34768;DHT22;21755;43.608;1.236;2023-09-07T08:43:09;23.60;1.00
34768;DHT22;21755;43.608;1.236;2023-09-07T08:45:41;23.70;99.90
34768;DHT22;21755;43.608;1.236;2023-09-07T08:48:11;23.80;99.90
34768;DHT22;21755;43.608;1.236;2023-09-07T08:50:40;23.90;99.90
34768;DHT22;21755;43.608;1.236;2023-09-07T08:53:08;24.00;1.00
34768;DHT22;21755;43.608;1.236;2023-09-07T08:55:34;24.10;1.00
34768;DHT22;21755;43.608;1.236;2023-09-07T08:58:00;24.20;55.90
34768;DHT22;21755;43.608;1.236;2023-09-07T09:00:26;24.30;99.90
34768;DHT22;21755;43.608;1.236;2023-09-07T09:02:52;24.40;99.90
34768;DHT22;21755;43.608;1.236;2023-09-07T09:05:19;24.40;99.90
34768;DHT22;21755;43.608;1.236;2023-09-07T09:07:45;24.50;1.00
34768;DHT22;21755;43.608;1.236;2023-09-07T09:10:11;24.50;1.00
34768;DHT22;21755;43.608;1.236;2023-09-07T09:12:45;24.60;99.90
34768;DHT22;21755;43.608;1.236;2023-09-07T09:15:12;24.70;1.00
34768;DHT22;21755;43.608;1.236;2023-09-07T09:17:38;24.80;1.00
34768;DHT22;21755;43.608;1.236;2023-09-07T09:20:04;24.90;99.90
34768;DHT22;21755;43.608;1.236;2023-09-07T09:22:35;25.00;99.90
34768;DHT22;21755;43.608;1.236;2023-09-07T09:25:04;25.10;99.90
34768;DHT22;21755;43.608;1.236;2023-09-07T09:27:30;25.10;99.90
34768;DHT22;21755;43.608;1.236;2023-09-07T09:29:57;25.20;99.90
34768;DHT22;21755;43.608;1.236;2023-09-07T09:32:24;25.30;99.90
34768;DHT22;21755;43.608;1.236;2023-09-07T09:34:50;25.40;99.90
34768;DHT22;21755;43.608;1.236;2023-09-07T09:37:17;25.50;85.80
34768;DHT22;21755;43.608;1.236;2023-09-07T09:39:49;25.50;90.30
34768;DHT22;21755;43.608;1.236;2023-09-07T09:42:16;25.60;78.80
34768;DHT22;21755;43.608;1.236;2023-09-07T09:44:43;25.70;99.90
34768;DHT22;21755;43.608;1.236;2023-09-07T09:47:10;25.80;1.00
34768;DHT22;21755;43.608;1.236;2023-09-07T09:49:38;25.80;1.00
34768;DHT22;21755;43.608;1.236;2023-09-07T09:52:05;25.90;1.00
34768;DHT22;21755;43.608;1.236;2023-09-07T09:54:34;26.00;1.00
34768;DHT22;21755;43.608;1.236;2023-09-07T09:57:00;26.00;1.00
34768;DHT22;21755;43.608;1.236;2023-09-07T09:59:27;26.10;1.00
34768;DHT22;21755;43.608;1.236;2023-09-07T10:01:53;26.20;1.00
34768;DHT22;21755;43.608;1.236;2023-09-07T10:04:20;26.30;1.00
34768;DHT22;21755;43.608;1.236;2023-09-07T10:06:59;26.40;1.00
34768;DHT22;21755;43.608;1.236;2023-09-07T10:09:32;26.50;1.00
34768;DHT22;21755;43.608;1.236;2023-09-07T10:11:58;26.60;99.90
34768;DHT22;21755;43.608;1.236;2023-09-07T10:14:25;26.60;99.90
34768;DHT22;21755;43.608;1.236;2023-09-07T10:16:53;26.70;1.00
34768;DHT22;21755;43.608;1.236;2023-09-07T10:19:22;26.70;1.00
34768;DHT22;21755;43.608;1.236;2023-09-07T10:21:55;26.80;1.00
34768;DHT22;21755;43.608;1.236;2023-09-07T10:24:31;26.90;1.00
34768;DHT22;21755;43.608;1.236;2023-09-07T10:27:08;27.00;1.00
34768;DHT22;21755;43.608;1.236;2023-09-07T10:29:43;27.10;1.00
34768;DHT22;21755;43.608;1.236;2023-09-07T10:32:09;27.20;99.90
34768;DHT22;21755;43.608;1.236;2023-09-07T10:34:39;27.20;99.90
34768;DHT22;21755;43.608;1.236;2023-09-07T10:37:11;27.20;99.90
34768;DHT22;21755;43.608;1.236;2023-09-07T10:39:42;27.30;99.90
34768;DHT22;21755;43.608;1.236;2023-09-07T10:42:21;27.40;99.90
34768;DHT22;21755;43.608;1.236;2023-09-07T10:44:47;27.50;99.90
34768;DHT22;21755;43.608;1.236;2023-09-07T10:47:13;27.50;99.90
34768;DHT22;21755;43.608;1.236;2023-09-07T10:49:39;27.50;99.90
34768;DHT22;21755;43.608;1.236;2023-09-07T10:52:05;27.60;99.90
34768;DHT22;21755;43.608;1.236;2023-09-07T10:54:31;27.60;99.90
34768;DHT22;21755;43.608;1.236;2023-09-07T10:56:56;27.70;99.90
34768;DHT22;21755;43.608;1.236;2023-09-07T10:59:32;27.70;99.90
34768;DHT22;21755;43.608;1.236;2023-09-07T11:02:06;27.80;99.90
34768;DHT22;21755;43.608;1.236;2023-09-07T11:04:32;27.90;99.90
34768;DHT22;21755;43.608;1.236;2023-09-07T11:06:58;27.90;99.90
34768;DHT22;21755;43.608;1.236;2023-09-07T11:09:24;27.90;99.90
34768;DHT22;21755;43.608;1.236;2023-09-07T11:11:50;28.00;99.90
34768;DHT22;21755;43.608;1.236;2023-09-07T11:14:16;28.10;99.90
34768;DHT22;21755;43.608;1.236;2023-09-07T11:16:41;28.10;99.90
34768;DHT22;21755;43.608;1.236;2023-09-07T11:19:08;28.10;99.90
34768;DHT22;21755;43.608;1.236;2023-09-07T11:21:34;28.20;99.90
34768;DHT22;21755;43.608;1.236;2023-09-07T11:24:01;28.30;99.90
34768;DHT22;21755;43.608;1.236;2023-09-07T11:26:42;28.40;1.00
34768;DHT22;21755;43.608;1.236;2023-09-07T11:29:08;28.50;99.90
34768;DHT22;21755;43.608;1.236;2023-09-07T11:31:34;28.50;99.90
34768;DHT22;21755;43.608;1.236;2023-09-07T11:34:00;28.50;99.90
34768;DHT22;21755;43.608;1.236;2023-09-07T11:36:26;28.60;99.90
34768;DHT22;21755;43.608;1.236;2023-09-07T11:38:53;28.70;99.90
34768;DHT22;21755;43.608;1.236;2023-09-07T11:41:19;28.80;99.90
34768;DHT22;21755;43.608;1.236;2023-09-07T11:43:44;28.80;99.90
34768;DHT22;21755;43.608;1.236;2023-09-07T11:46:11;28.90;99.90
34768;DHT22;21755;43.608;1.236;2023-09-07T11:48:36;28.90;99.90
34768;DHT22;21755;43.608;1.236;2023-09-07T11:51:03;28.90;99.90
34768;DHT22;21755;43.608;1.236;2023-09-07T11:53:28;29.10;99.90
34768;DHT22;21755;43.608;1.236;2023-09-07T11:55:56;29.10;99.90
34768;DHT22;21755;43.608;1.236;2023-09-07T11:58:21;29.10;99.90
34768;DHT22;21755;43.608;1.236;2023-09-07T12:00:47;29.10;99.90
34768;DHT22;21755;43.608;1.236;2023-09-07T12:03:13;29.20;99.90
34768;DHT22;21755;43.608;1.236;2023-09-07T12:05:39;29.30;99.90
34768;DHT22;21755;43.608;1.236;2023-09-07T12:08:07;29.30;99.90
34768;DHT22;21755;43.608;1.236;2023-09-07T12:10:33;29.40;99.90
34768;DHT22;21755;43.608;1.236;2023-09-07T12:12:59;29.40;99.90
34768;DHT22;21755;43.608;1.236;2023-09-07T12:15:24;29.50;99.90
34768;DHT22;21755;43.608;1.236;2023-09-07T12:17:50;29.50;99.90
34768;DHT22;21755;43.608;1.236;2023-09-07T12:20:20;29.60;99.90
34768;DHT22;21755;43.608;1.236;2023-09-07T12:22:46;29.60;99.90
34768;DHT22;21755;43.608;1.236;2023-09-07T12:25:13;29.60;99.90
34768;DHT22;21755;43.608;1.236;2023-09-07T12:27:38;29.70;99.90
34768;DHT22;21755;43.608;1.236;2023-09-07T12:30:05;29.80;99.90
34768;DHT22;21755;43.608;1.236;2023-09-07T12:32:37;29.80;99.90
34768;DHT22;21755;43.608;1.236;2023-09-07T12:35:03;29.80;99.90
34768;DHT22;21755;43.608;1.236;2023-09-07T12:37:33;29.90;99.90
34768;DHT22;21755;43.608;1.236;2023-09-07T12:39:58;29.90;99.90
34768;DHT22;21755;43.608;1.236;2023-09-07T12:42:24;30.00;99.90
34768;DHT22;21755;43.608;1.236;2023-09-07T12:44:50;30.00;99.90
34768;DHT22;21755;43.608;1.236;2023-09-07T12:47:16;30.00;99.90
34768;DHT22;21755;43.608;1.236;2023-09-07T12:49:42;30.00;99.90
34768;DHT22;21755;43.608;1.236;2023-09-07T12:52:08;30.10;99.90
34768;DHT22;21755;43.608;1.236;2023-09-07T12:54:35;30.20;99.90
34768;DHT22;21755;43.608;1.236;2023-09-07T12:57:02;30.30;99.90
34768;DHT22;21755;43.608;1.236;2023-09-07T12:59:29;30.30;99.90
34768;DHT22;21755;43.608;1.236;2023-09-07T13:01:54;30.30;99.90
34768;DHT22;21755;43.608;1.236;2023-09-07T13:04:23;30.50;99.90
34768;DHT22;21755;43.608;1.236;2023-09-07T13:06:49;30.50;99.90
34768;DHT22;21755;43.608;1.236;2023-09-07T13:09:15;30.50;99.90
34768;DHT22;21755;43.608;1.236;2023-09-07T13:11:41;30.50;99.90
34768;DHT22;21755;43.608;1.236;2023-09-07T13:14:07;30.50;99.90
34768;DHT22;21755;43.608;1.236;2023-09-07T13:16:34;30.50;99.90
34768;DHT22;21755;43.608;1.236;2023-09-07T13:19:00;30.50;99.90
34768;DHT22;21755;43.608;1.236;2023-09-07T13:21:26;30.50;99.90
34768;DHT22;21755;43.608;1.236;2023-09-07T13:23:52;30.60;99.90
34768;DHT22;21755;43.608;1.236;2023-09-07T13:26:17;30.60;99.90
34768;DHT22;21755;43.608;1.236;2023-09-07T13:28:43;30.60;99.90
34768;DHT22;21755;43.608;1.236;2023-09-07T13:31:09;30.60;99.90
34768;DHT22;21755;43.608;1.236;2023-09-07T13:33:35;30.70;99.90
34768;DHT22;21755;43.608;1.236;2023-09-07T13:36:01;30.80;99.90
34768;DHT22;21755;43.608;1.236;2023-09-07T13:38:27;30.80;99.90
34768;DHT22;21755;43.608;1.236;2023-09-07T13:40:53;30.80;99.90
34768;DHT22;21755;43.608;1.236;2023-09-07T13:43:19;30.90;99.90
34768;DHT22;21755;43.608;1.236;2023-09-07T13:45:45;30.90;99.90
34768;DHT22;21755;43.608;1.236;2023-09-07T13:48:11;31.00;99.90
34768;DHT22;21755;43.608;1.236;2023-09-07T13:50:36;31.00;99.90
34768;DHT22;21755;43.608;1.236;2023-09-07T13:53:02;31.00;99.90
34768;DHT22;21755;43.608;1.236;2023-09-07T13:55:28;30.90;99.90
34768;DHT22;21755;43.608;1.236;2023-09-07T13:57:54;30.90;99.90
34768;DHT22;21755;43.608;1.236;2023-09-07T14:00:20;30.90;99.90
34768;DHT22;21755;43.608;1.236;2023-09-07T14:02:46;30.90;99.90
34768;DHT22;21755;43.608;1.236;2023-09-07T14:05:12;31.00;99.90
34768;DHT22;21755;43.608;1.236;2023-09-07T14:07:37;31.10;99.90
34768;DHT22;21755;43.608;1.236;2023-09-07T14:10:03;31.10;99.90
34768;DHT22;21755;43.608;1.236;2023-09-07T14:12:29;31.10;99.90
34768;DHT22;21755;43.608;1.236;2023-09-07T14:14:55;31.10;99.90
34768;DHT22;21755;43.608;1.236;2023-09-07T14:17:21;31.10;98.30
34768;DHT22;21755;43.608;1.236;2023-09-07T14:19:47;31.10;97.00
34768;DHT22;21755;43.608;1.236;2023-09-07T14:22:13;31.10;97.80
34768;DHT22;21755;43.608;1.236;2023-09-07T14:24:39;31.10;95.30
34768;DHT22;21755;43.608;1.236;2023-09-07T14:27:05;31.20;93.50
34768;DHT22;21755;43.608;1.236;2023-09-07T14:29:30;31.20;92.10
34768;DHT22;21755;43.608;1.236;2023-09-07T14:31:57;31.20;90.60
34768;DHT22;21755;43.608;1.236;2023-09-07T14:34:23;31.30;88.40
34768;DHT22;21755;43.608;1.236;2023-09-07T14:36:49;31.20;92.00
34768;DHT22;21755;43.608;1.236;2023-09-07T14:39:15;31.30;80.30
34768;DHT22;21755;43.608;1.236;2023-09-07T14:41:41;31.30;78.90
34768;DHT22;21755;43.608;1.236;2023-09-07T14:44:08;31.20;73.20
34768;DHT22;21755;43.608;1.236;2023-09-07T14:46:36;31.30;74.80
34768;DHT22;21755;43.608;1.236;2023-09-07T14:49:01;31.40;76.50
34768;DHT22;21755;43.608;1.236;2023-09-07T14:51:27;31.40;70.00
34768;DHT22;21755;43.608;1.236;2023-09-07T14:53:53;31.30;68.40
34768;DHT22;21755;43.608;1.236;2023-09-07T14:56:19;31.40;68.70
34768;DHT22;21755;43.608;1.236;2023-09-07T14:58:45;31.40;70.50
34768;DHT22;21755;43.608;1.236;2023-09-07T15:01:11;31.30;69.70
34768;DHT22;21755;43.608;1.236;2023-09-07T15:03:37;31.30;63.70
34768;DHT22;21755;43.608;1.236;2023-09-07T15:06:06;31.40;62.60
34768;DHT22;21755;43.608;1.236;2023-09-07T15:08:32;31.40;55.00
34768;DHT22;21755;43.608;1.236;2023-09-07T15:10:58;31.40;54.20
34768;DHT22;21755;43.608;1.236;2023-09-07T15:13:25;31.40;51.90
34768;DHT22;21755;43.608;1.236;2023-09-07T15:15:51;31.40;50.30
34768;DHT22;21755;43.608;1.236;2023-09-07T15:18:17;31.30;51.30
34768;DHT22;21755;43.608;1.236;2023-09-07T15:20:43;31.30;45.40
34768;DHT22;21755;43.608;1.236;2023-09-07T15:23:09;31.30;46.50
34768;DHT22;21755;43.608;1.236;2023-09-07T15:25:35;31.30;46.00
34768;DHT22;21755;43.608;1.236;2023-09-07T15:28:01;31.30;44.60
34768;DHT22;21755;43.608;1.236;2023-09-07T15:30:27;31.30;42.80
34768;DHT22;21755;43.608;1.236;2023-09-07T15:32:53;31.30;41.50
34768;DHT22;21755;43.608;1.236;2023-09-07T15:35:19;31.30;41.30